CDT,Max TemperatureF,Mean TemperatureF,Min TemperatureF,Max Dew PointF,MeanDew PointF,Min DewpointF,Max Humidity, Mean Humidity, Min Humidity, Max Sea Level PressureIn, Mean Sea Level PressureIn, Min Sea Level PressureIn, Max VisibilityMiles, Mean VisibilityMiles, Min VisibilityMiles, Max Wind SpeedMPH, Mean Wind SpeedMPH, Max Gust SpeedMPH,PrecipitationIn, CloudCover, Events, WindDirDegrees
2013-8-1,88,75,63,66,63,60,92,67,39,30.19,30.05,29.82,10,10,5,28,7,39,0.00,2,Rain-Thunderstorm,152
2013-8-2,78,70,62,64,62,58,90,74,56,30.08,29.98,29.88,10,10,10,16,7,23,0.00,4,,112
2013-8-3,78,68,57,64,61,56,94,84,58,30.26,30.17,30.07,10,6,0,25,10,47,1.57,5,Fog-Rain-Thunderstorm,106
2013-8-4,78,70,61,67,62,58,91,81,67,30.22,30.11,30.02,10,9,3,16,10,21,0.01,6,Rain,147
2013-8-5,87,76,66,67,63,58,92,68,38,30.03,29.98,29.95,10,10,4,15,7,18,0.00,1,,96
2013-8-6,85,74,63,65,61,57,91,66,42,30.02,29.95,29.90,10,10,5,17,6,34,0.00,3,Rain,74
2013-8-7,82,70,57,61,56,51,90,62,34,30.08,30.05,30.01,10,10,10,10,3,,0.00,2,,164
2013-8-8,79,70,61,63,59,54,88,72,43,30.12,30.07,30.03,10,10,5,13,5,21,0.06,4,Rain-Thunderstorm,218
2013-8-9,83,68,55,61,57,53,93,73,39,30.23,30.15,30.11,10,9,0,16,2,21,0.63,3,Fog-Rain-Thunderstorm,126
2013-8-10,85,72,58,62,56,49,93,61,29,30.21,30.15,30.07,10,10,5,20,7,25,0.01,1,,190
2013-8-11,80,72,65,64,62,58,87,73,56,30.15,30.11,30.08,10,10,10,14,8,20,0.00,1,,92
2013-8-12,81,70,60,65,61,58,94,74,47,30.16,30.13,30.08,10,8,1,8,2,,0.01,4,,70
2013-8-13,79,70,60,63,59,55,91,71,45,30.21,30.17,30.12,10,9,1,17,9,21,2.12,3,Rain-Thunderstorm,128
2013-8-14,80,70,59,64,60,56,91,76,44,30.21,30.13,30.05,10,10,1,17,6,39,0.68,4,Rain-Thunderstorm,127
2013-8-15,76,66,58,64,61,55,93,82,61,30.16,30.08,30.01,10,8,0,13,4,,0.00,4,Fog-Thunderstorm,61
2013-8-16,81,72,63,63,60,58,91,73,46,30.17,30.15,30.11,10,8,2,12,5,,0.00,5,,130
2013-8-17,79,72,65,64,63,62,91,77,54,30.17,30.11,30.06,10,8,2,20,13,23,0.00,6,,171
2013-8-18,81,72,64,64,63,61,89,73,56,30.10,30.07,30.04,10,10,7,22,11,26,0.00,2,,175
2013-8-19,92,78,64,68,62,55,89,63,28,30.04,30.00,29.96,10,10,5,14,7,20,0.00,0,,198
2013-8-20,95,81,67,66,62,55,85,56,26,29.98,29.94,29.89,10,10,7,18,8,25,0.00,0,,188
2013-8-21,93,80,67,68,63,60,89,59,34,30.10,29.99,29.95,10,10,7,21,8,31,0.01,1,Rain-Thunderstorm,120
2013-8-22,77,70,64,67,64,61,93,82,66,30.17,30.12,30.03,10,9,0,16,7,25,0.00,7,Fog-Rain-Thunderstorm,52
2013-8-23,89,78,68,67,65,57,92,70,34,30.13,30.02,29.93,10,8,4,21,6,25,0.00,4,,145
2013-8-24,97,82,68,67,58,50,77,46,20,29.98,29.95,29.91,10,10,10,21,13,30,0.00,0,,173
2013-8-25,98,85,72,60,57,50,64,40,19,30.05,30.02,29.98,10,10,10,23,15,30,0.00,0,,182
2013-8-26,99,86,74,62,58,53,59,41,21,30.04,30.00,29.95,10,10,10,18,13,29,0.00,0,,198
2013-8-27,100,82,64,62,57,51,78,43,19,30.01,29.97,29.93,10,10,10,13,7,20,0.00,0,,185
2013-8-28,96,81,66,61,56,47,69,44,18,30.05,30.01,29.97,10,10,10,16,7,21,0.00,0,,180
2013-8-29,99,79,59,64,57,48,91,52,18,30.05,30.01,29.97,10,10,7,9,4,,0.00,0,,185
2013-8-30,94,80,67,68,62,55,90,59,28,30.19,30.05,29.96,10,10,1,52,5,63,0.89,1,Rain-Thunderstorm,51
2013-8-31,93,78,62,67,61,54,90,59,34,30.04,29.96,29.89,10,10,10,16,8,25,0.01,0,Thunderstorm,249